NCAR-RAP Real-Time Weather Data

Output produced by METARs form (16 August 2018  19:23 UTC)
found at http://weather.rap.ucar.edu/surface/
 
RJEB 160700Z 05013KT 4500 SHRA BR FEW006 SCT008 BKN030 14/13 Q1008
RJEB 160600Z 05014KT 5000 -SHRA BR FEW002 BKN006 14/13 Q1008
RJEB 160537Z 06014KT 3200 SHRA BR FEW002 SCT005 BKN006 14/14 Q1007 RMK 1ST002 4ST005 7ST006 A2976 9999NE
RJEB 160522Z 06012G22KT 2400 R32/1400VP2000U SHRA BR FEW002 BKN005 BKN006 14/14 Q1008 RMK 1ST002 6ST005 7ST006 A2977 5000NE
RJEB 160512Z 06012KT 2300 R32/1400VP2000D SHRA BR FEW003 BKN005 BKN006 14/14 Q1008 RMK 1ST003 5ST005 7ST006 A2977
RJEB 160507Z 06013KT 3100 SHRA BR FEW003 SCT005 BKN006 14/14 Q1008 RMK 1ST003 4ST005 7ST006 A2977
RJEB 160500Z 06012KT 3500 -SHRA BR FEW002 SCT005 BKN006 14/14 Q1008
RJEB 160428Z 06012KT 4000 -SHRA BR FEW002 BKN005 BKN006 14/14 Q1008 RMK 1ST002 5ST005 7ST006 A2978 9999NE
RJEB 160400Z 06012KT 4900 -SHRA BR FEW002 BKN006 15/14 Q1008
RJEB 160341Z 05012KT 8000 -SHRA FEW002 BKN006 BKN007 15/14 Q1009 RMK 1ST002 6ST006 7ST007 A2980
RJEB 160310Z 05013G23KT 8000 -SHRA FEW002 BKN005 BKN006 15/14 Q1009 RMK 1ST002 5ST005 7ST006 A2980
RJEB 160300Z 05012KT 5000 SHRA BR FEW002 BKN005 15/14 Q1009
RJEB 160242Z 05010KT 4900 SHRA BR FEW002 BKN005 15/14 Q1009 RMK 1ST002 7ST005 A2981 9999N-NE
RJEB 160225Z 05011KT 020V080 6000 -SHRA BR FEW002 BKN005 BKN006 15/14 Q1009 RMK 1ST002 5ST005 7ST006 A2982 BR SE
RJEB 160200Z 05011KT 020V080 6000 -SHRA FEW002 BKN006 15/14 Q1009
RJEB 160100Z 07010KT 030V100 8000 -SHRA FEW002 BKN006 15/14 Q1010
RJEB 160023Z 08010KT 5000 SHRA BR FEW002 BKN005 15/14 Q1010 RMK 1ST002 7ST005 A2984 9999NE
RJEB 160010Z 08009KT 6000 -SHRA FEW002 BKN005 BKN006 15/14 Q1010 RMK 1ST002 6ST005 7ST006 A2984
RJEB 160000Z 08010KT 5000 SHRA BR FEW002 BKN006 BKN007 15/14 Q1010
RJEB 150700Z 09007KT 6000 -SHRA FEW003 BKN004 16/16 Q1014
RJEB 150600Z 09008KT 4000 -SHRA BR FEW002 BKN003 BKN004 16/16 Q1014
RJEB 150531Z 10007KT 060V120 3200 -SHRA BR FEW002 BKN003 BKN004 16/16 Q1014 RMK 1ST002 5ST003 6ST004 A2995 9999NE
RJEB 150500Z 08007KT 3100 SHRA BR FEW002 BKN003 16/16 Q1014
RJEB 150436Z 08006KT 3200 -SHRA BR FEW002 BKN003 16/16 Q1014 RMK 1ST002 6ST003 A2995 9999N-E
RJEB 150422Z 08006KT 2400 -SHRA BR FEW002 BKN003 17/16 Q1014 RMK 1ST002 6ST003 A2995 9999NE
RJEB 150400Z 07006KT 040V100 2300 -SHRA BR FEW001 SCT002 BKN003 17/16 Q1014
RJEB 150343Z 08006KT 3100 -SHRA BR FEW002 BKN003 17/16 Q1014 RMK 1ST002 6ST003 A2996 9999NE
RJEB 150330Z 08006KT 030V100 4900 -SHRA BR FEW002 BKN003 17/16 Q1014 RMK 1ST002 6ST003 A2996 9999NE-E
RJEB 150300Z 08006KT 6000 -SHRA FEW002 BKN003 BKN004 17/17 Q1014
RJEB 150227Z 08005KT 5000 -SHRA BR FEW002 BKN003 BKN004 17/17 Q1014 RMK 1ST002 5ST003 6ST004 A2995 9999NE
RJEB 150200Z 10006KT 6000 -SHRA FEW002 SCT003 BKN004 17/17 Q1014
RJEB 150132Z 08005KT 3200 -SHRA BR FEW002 SCT003 BKN004 17/17 Q1014 RMK 1ST002 4ST003 6ST004 A2995 9999NE-E
RJEB 150122Z 08005KT 050V110 2400 -SHRA BR FEW002 SCT003 BKN004 17/17 Q1014 RMK 1ST002 4ST003 6ST004 A2995 9999NE-E
RJEB 150100Z 05005KT 2300 -SHRA BR FEW002 BKN003 17/17 Q1014
RJEB 150039Z 05005KT 010V080 4900 -SHRA BR FEW002 BKN003 BKN004 17/17 Q1014 RMK 1ST002 5ST003 6ST004 A2996 9999NE-E
RJEB 150000Z 08004KT 040V120 6000 -SHRA FEW002 SCT003 BKN004 17/17 Q1014